Time;durP1;ratioP1;P1;durP2;ratioP2;P2;SDS_P1;SDS_P2;PMS_P1;PMS_P2;Temp;Humidity;BMP_temperature;BMP_pressure;BME280_temperature;BME280_humidity;BME280_pressure;Samples;Min_cycle;Max_cycle;Signal;HPM_P1;HPM_P2
2023/05/21 00:00:00;;;;;;;8.57;4.28;;;;;;;16.07;60.52;101723.47;5001015;28;20032;-86
2023/05/21 00:02:28;;;;;;;6.32;4.28;;;;;;;16.07;61.01;101736.78;5016931;28;20033;-86
2023/05/21 00:04:54;;;;;;;7.22;4.40;;;;;;;15.99;60.91;101728.78;5017231;28;20036;-87
2023/05/21 00:07:19;;;;;;;7.20;4.00;;;;;;;15.91;61.21;101730.53;5017820;28;20025;-86
2023/05/21 00:09:45;;;;;;;8.15;4.07;;;;;;;15.88;61.93;101727.84;4984074;28;20497;-86
2023/05/21 00:12:10;;;;;;;7.88;4.40;;;;;;;15.77;62.41;101733.16;5034324;28;20033;-86
2023/05/21 00:14:35;;;;;;;5.70;4.00;;;;;;;15.70;62.60;101725.13;5016397;28;20073;-86
2023/05/21 00:17:01;;;;;;;5.53;3.92;;;;;;;15.58;62.84;101723.25;5034103;28;20078;-86
2023/05/21 00:19:26;;;;;;;9.40;4.13;;;;;;;15.61;63.17;101725.94;5034105;28;20033;-86
2023/05/21 00:21:53;;;;;;;6.60;3.90;;;;;;;15.64;62.93;101714.41;5034279;28;20369;-85
2023/05/21 00:24:19;;;;;;;9.25;4.38;;;;;;;15.53;63.33;101720.56;5000123;28;20033;-86
2023/05/21 00:26:44;;;;;;;7.97;4.78;;;;;;;15.54;63.34;101724.13;5033911;28;20037;-86
2023/05/21 00:29:10;;;;;;;8.70;5.97;;;;;;;15.53;63.38;101717.03;4999857;28;20037;-86
2023/05/21 00:31:35;;;;;;;15.45;7.60;;;;;;;15.53;63.42;101717.03;5016288;28;20040;-86
2023/05/21 00:34:00;;;;;;;11.23;7.93;;;;;;;15.55;63.61;101720.59;5033555;28;20389;-86
2023/05/21 00:36:26;;;;;;;17.30;10.65;;;;;;;15.52;63.96;101708.16;5034266;28;20516;-86
2023/05/21 00:38:51;;;;;;;17.73;12.90;;;;;;;15.53;63.55;101714.34;5034212;28;20072;-85
2023/05/21 00:41:19;;;;;;;24.17;16.45;;;;;;;15.49;63.94;101716.13;5034048;28;20120;-86
2023/05/21 00:43:45;;;;;;;22.38;17.00;;;;;;;15.42;64.48;101713.44;5015976;28;20037;-86
2023/05/21 00:46:18;;;;;;;21.70;15.73;;;;;;;15.43;64.36;101709.88;5033891;28;20036;-86
2023/05/21 00:48:48;;;;;;;20.10;14.23;;;;;;;15.37;64.53;101702.72;5033680;28;20040;-86
2023/05/21 00:51:14;;;;;;;19.95;13.93;;;;;;;15.38;64.58;101703.66;5016502;28;20033;-86
2023/05/21 00:53:40;;;;;;;15.60;11.95;;;;;;;15.35;64.49;101703.63;5033563;28;20037;-86
2023/05/21 00:56:06;;;;;;;15.25;11.23;;;;;;;15.30;65.10;101708.94;5015834;28;20022;-86
2023/05/21 00:58:33;;;;;;;12.85;8.57;;;;;;;15.27;64.88;101699.16;5015992;28;20092;-86
2023/05/21 01:01:02;;;;;;;10.93;7.53;;;;;;;15.32;65.01;101700.94;5033000;28;20029;-85
2023/05/21 01:03:40;;;;;;;8.85;6.40;;;;;;;15.22;65.59;101700.00;5015884;28;20025;-86
2023/05/21 01:06:08;;;;;;;9.55;6.43;;;;;;;15.22;65.57;101708.00;5033421;28;20030;-86
2023/05/21 01:08:36;;;;;;;7.38;5.78;;;;;;;15.12;65.71;101696.41;5015637;28;20033;-86
2023/05/21 01:11:03;;;;;;;8.68;5.65;;;;;;;15.25;65.61;101708.03;5015583;28;20036;-86
2023/05/21 01:13:31;;;;;;;8.88;4.90;;;;;;;15.30;65.57;101702.72;5015521;28;20116;-86
2023/05/21 01:15:58;;;;;;;7.57;5.18;;;;;;;15.35;65.29;101704.50;5015272;28;20058;-86
2023/05/21 01:18:25;;;;;;;7.22;4.88;;;;;;;15.25;65.89;101702.69;5032982;28;20448;-86
2023/05/21 01:20:51;;;;;;;6.38;4.55;;;;;;;15.20;65.82;101693.78;5033266;28;20132;-86
2023/05/21 01:23:16;;;;;;;9.60;4.90;;;;;;;15.11;66.46;101699.94;5033136;28;20043;-86
2023/05/21 01:25:43;;;;;;;8.57;5.00;;;;;;;15.04;66.71;101698.16;4983057;28;20029;-86
2023/05/21 01:28:08;;;;;;;7.15;4.55;;;;;;;14.97;66.69;101685.66;5015455;28;20037;-86
2023/05/21 01:30:35;;;;;;;8.23;4.78;;;;;;;14.99;66.78;101695.47;5015437;28;20036;-86
2023/05/21 01:33:16;;;;;;;8.70;4.53;;;;;;;14.99;66.74;101692.78;5015450;28;20397;-86
2023/05/21 01:35:48;;;;;;;6.85;4.68;;;;;;;14.95;67.13;101693.66;5033723;28;20065;-86
2023/05/21 01:38:21;;;;;;;;;;;;;;;15.05;65.27;101696.38;5033852;28;20033;-86
2023/05/21 01:41:10;;;;;;;6.45;4.50;;;;;;;14.95;67.01;101691.00;5015668;28;20246;-86
2023/05/21 01:43:38;;;;;;;8.30;4.35;;;;;;;14.85;68.01;101698.88;5032982;28;20029;-87
2023/05/21 01:46:06;;;;;;;6.55;4.30;;;;;;;14.76;68.05;101687.31;5015987;28;20343;-87
2023/05/21 01:48:35;;;;;;;8.52;4.32;;;;;;;14.78;68.24;101693.53;5015286;28;20038;-87
2023/05/21 01:51:02;;;;;;;5.78;4.13;;;;;;;14.83;68.37;101695.34;5015699;28;20033;-86
2023/05/21 01:53:28;;;;;;;6.20;4.28;;;;;;;14.85;68.07;101691.78;5033228;28;20377;-86
2023/05/21 01:55:54;;;;;;;8.45;4.35;;;;;;;14.74;68.38;101681.09;5032984;28;20406;-86
2023/05/21 01:58:20;;;;;;;6.22;4.20;;;;;;;14.89;68.20;101692.72;5033184;28;20041;-86
2023/05/21 02:00:48;;;;;;;7.68;4.13;;;;;;;14.95;67.97;101682.13;5015068;28;20128;-86
2023/05/21 02:03:13;;;;;;;6.60;4.18;;;;;;;14.98;67.94;101683.00;5015744;28;20022;-86
2023/05/21 02:05:39;;;;;;;6.65;4.43;;;;;;;15.11;67.48;101683.09;5014937;28;20041;-86
2023/05/21 02:08:07;;;;;;;7.53;4.72;;;;;;;15.03;68.11;101677.72;5015338;28;20437;-86
2023/05/21 02:10:33;;;;;;;7.30;4.20;;;;;;;15.02;67.99;101684.81;5015422;28;20033;-86
2023/05/21 02:12:58;;;;;;;6.50;4.25;;;;;;;15.02;67.89;101684.81;5033780;28;20351;-86
2023/05/21 02:15:24;;;;;;;4.88;4.20;;;;;;;15.05;67.86;101677.72;5018471;28;20485;-86
2023/05/21 02:17:50;;;;;;;7.40;4.20;;;;;;;15.04;67.97;101671.53;5002292;28;20436;-86
2023/05/21 02:20:15;;;;;;;9.30;4.60;;;;;;;14.95;68.73;101676.81;5018645;28;20025;-86
2023/05/21 02:22:43;;;;;;;6.45;4.30;;;;;;;15.00;68.72;101685.69;5018372;28;20494;-86
2023/05/21 02:25:09;;;;;;;5.93;4.50;;;;;;;14.95;68.58;101669.69;5002128;28;20061;-86
2023/05/21 02:27:36;;;;;;;7.68;4.55;;;;;;;14.96;69.06;101675.91;5036736;28;20029;-87
2023/05/21 02:30:07;;;;;;;6.90;4.43;;;;;;;14.94;69.24;101678.53;5035730;28;20429;-86
2023/05/21 02:32:33;;;;;;;8.70;4.50;;;;;;;14.94;69.15;101678.53;5036134;28;20038;-86
2023/05/21 02:35:00;;;;;;;6.38;4.50;;;;;;;14.95;69.52;101675.03;5036025;28;20026;-87
2023/05/21 02:37:26;;;;;;;5.75;4.35;;;;;;;14.96;69.90;101682.13;5018129;28;20469;-86
2023/05/21 02:39:55;;;;;;;7.35;4.40;;;;;;;15.02;69.60;101682.13;5018144;28;20045;-86
2023/05/21 02:42:22;;;;;;;6.97;4.70;;;;;;;15.03;69.48;101675.03;5035819;28;20033;-87
2023/05/21 02:44:48;;;;;;;6.32;4.13;;;;;;;15.11;69.11;101683.97;5002501;28;20033;-86
2023/05/21 02:47:13;;;;;;;6.55;4.28;;;;;;;15.04;69.64;101674.19;5035469;28;20033;-86
2023/05/21 02:49:39;;;;;;;6.78;4.57;;;;;;;15.05;69.90;101664.44;5018380;28;20404;-86
2023/05/21 02:52:04;;;;;;;8.90;5.00;;;;;;;14.99;69.85;101673.28;5035892;28;20065;-86
2023/05/21 02:54:30;;;;;;;6.07;4.30;;;;;;;15.03;69.41;101675.97;5035693;28;20036;-86
2023/05/21 02:56:56;;;;;;;8.40;4.63;;;;;;;14.96;70.23;101662.59;5036129;28;20414;-86
2023/05/21 02:59:22;;;;;;;9.60;4.70;;;;;;;14.97;70.37;101669.69;5018060;28;20040;-87
2023/05/21 03:01:47;;;;;;;7.75;4.30;;;;;;;14.97;70.58;101662.59;5035483;28;20030;-86
2023/05/21 03:04:12;;;;;;;6.13;4.43;;;;;;;15.02;70.22;101659.97;5035385;28;20041;-87
2023/05/21 03:06:38;;;;;;;5.57;4.13;;;;;;;15.05;70.49;101656.44;5017788;28;20037;-86
2023/05/21 03:09:04;;;;;;;6.97;4.65;;;;;;;15.06;70.40;101658.22;5001470;28;20065;-86
2023/05/21 03:11:30;;;;;;;6.47;4.30;;;;;;;15.15;70.12;101653.81;5017834;28;20065;-86
2023/05/21 03:13:55;;;;;;;8.13;4.68;;;;;;;15.12;70.31;101656.50;5035319;28;20381;-86
2023/05/21 03:16:21;;;;;;;7.75;4.70;;;;;;;15.07;70.24;101658.22;5001498;28;20061;-86
2023/05/21 03:18:46;;;;;;;8.18;4.60;;;;;;;15.04;70.62;101652.91;5035215;28;20468;-85
2023/05/21 03:21:14;;;;;;;7.53;4.78;;;;;;;14.96;70.78;101649.28;5001132;28;20036;-86
2023/05/21 03:23:40;;;;;;;6.70;4.70;;;;;;;14.93;71.34;101643.94;5034937;28;20082;-86
2023/05/21 03:26:06;;;;;;;6.25;5.15;;;;;;;14.94;71.03;101643.94;5034573;28;20033;-86
2023/05/21 03:28:32;;;;;;;7.63;4.70;;;;;;;14.93;71.37;101641.28;5034999;28;20044;-86
2023/05/21 03:30:58;;;;;;;6.85;4.70;;;;;;;14.95;71.26;101651.06;5034531;28;20045;-86
2023/05/21 03:33:23;;;;;;;7.13;4.70;;;;;;;14.94;71.45;101643.94;5017873;28;20364;-86
2023/05/21 03:35:49;;;;;;;7.80;5.15;;;;;;;14.89;71.77;101653.69;5017178;28;20033;-87
2023/05/21 03:38:15;;;;;;;7.85;4.80;;;;;;;14.84;71.98;101644.78;4984664;28;20064;-86
2023/05/21 03:40:40;;;;;;;9.55;5.00;;;;;;;14.82;72.19;101638.59;5000732;28;20041;-86
2023/05/21 03:43:05;;;;;;;6.45;4.68;;;;;;;14.82;72.38;101649.22;5034680;28;20033;-86
2023/05/21 03:45:31;;;;;;;7.63;4.90;;;;;;;14.78;72.21;101648.31;5016893;28;20111;-86
2023/05/21 03:47:56;;;;;;;12.63;4.90;;;;;;;14.75;72.64;101650.94;5017014;28;20040;-86
2023/05/21 03:50:21;;;;;;;8.00;5.18;;;;;;;14.74;72.38;101646.50;5016957;28;20188;-86
2023/05/21 03:52:47;;;;;;;7.15;4.78;;;;;;;14.72;73.14;101642.94;5000934;28;20179;-88
2023/05/21 03:55:12;;;;;;;6.10;4.78;;;;;;;14.79;72.69;101643.88;5035069;28;20089;-86
2023/05/21 03:57:41;;;;;;;7.57;4.82;;;;;;;14.67;72.60;101626.06;5035362;28;20410;-86
2023/05/21 04:00:07;;;;;;;7.70;5.03;;;;;;;14.78;72.85;101650.09;5017540;28;20045;-86
2023/05/21 04:02:34;;;;;;;8.05;5.07;;;;;;;14.76;72.88;101643.84;5034967;28;20044;-86
2023/05/21 04:04:59;;;;;;;7.97;5.30;;;;;;;14.82;72.87;101646.56;5034383;28;20095;-86
2023/05/21 04:07:25;;;;;;;8.27;5.00;;;;;;;14.83;72.85;101645.69;5034291;28;20064;-86
2023/05/21 04:09:51;;;;;;;7.00;5.10;;;;;;;14.85;72.69;101646.56;5034324;28;20044;-86
2023/05/21 04:12:18;;;;;;;6.60;4.85;;;;;;;14.76;73.01;101639.41;5034175;28;20030;-86
2023/05/21 04:14:45;;;;;;;7.63;4.88;;;;;;;14.78;73.18;101653.63;5016131;28;20112;-86
2023/05/21 04:17:11;;;;;;;6.18;4.63;;;;;;;14.77;73.18;101643.88;5034699;28;20025;-86
2023/05/21 04:19:37;;;;;;;9.15;4.95;;;;;;;14.80;72.92;101642.09;5034141;28;20041;-86
2023/05/21 04:22:03;;;;;;;8.90;5.38;;;;;;;14.82;73.04;101653.63;4984403;28;20436;-86
2023/05/21 04:24:28;;;;;;;6.75;5.05;;;;;;;14.83;73.22;101656.31;5016275;28;20064;-87
2023/05/21 04:26:54;;;;;;;7.53;4.88;;;;;;;14.86;73.08;101658.09;5034226;28;20048;-87
2023/05/21 04:29:20;;;;;;;9.05;5.10;;;;;;;14.84;73.07;101652.78;5034132;28;20034;-86
2023/05/21 04:31:51;;;;;;;7.25;5.13;;;;;;;14.88;73.20;101649.25;5016550;28;20037;-86
2023/05/21 04:34:16;;;;;;;6.82;5.05;;;;;;;14.88;73.25;101651.91;5016833;28;20121;-86
2023/05/21 04:36:44;;;;;;;7.38;5.40;;;;;;;14.85;73.34;101657.19;5016131;28;20381;-86
2023/05/21 04:39:10;;;;;;;8.95;5.35;;;;;;;14.87;73.16;101663.44;5033807;28;20040;-86
2023/05/21 04:41:37;;;;;;;6.40;4.88;;;;;;;14.94;73.04;101661.69;4999976;28;20037;-86
2023/05/21 04:44:02;;;;;;;6.68;4.60;;;;;;;14.98;72.51;101663.50;5034141;28;20529;-86
2023/05/21 04:46:28;;;;;;;8.18;5.10;;;;;;;15.05;73.53;101667.97;5033641;28;20160;-86
2023/05/21 04:48:53;;;;;;;7.07;5.32;;;;;;;14.96;73.46;101659.94;5016296;28;20033;-87
2023/05/21 04:51:21;;;;;;;7.25;4.80;;;;;;;14.92;73.39;101664.34;5015974;28;20037;-86
2023/05/21 04:53:46;;;;;;;7.57;5.15;;;;;;;14.92;73.52;101667.00;5015841;28;20034;-86
2023/05/21 04:56:17;;;;;;;12.38;5.40;;;;;;;14.86;73.61;101664.34;5000015;28;20424;-86
2023/05/21 04:58:42;;;;;;;7.20;5.38;;;;;;;14.91;73.65;101665.25;5033532;28;20064;-87
2023/05/21 05:01:08;;;;;;;8.68;4.90;;;;;;;14.99;73.43;101665.28;5016121;28;20057;-86
2023/05/21 05:03:34;;;;;;;7.25;4.97;;;;;;;14.99;73.48;101657.31;5015742;28;20053;-86
2023/05/21 05:06:04;;;;;;;7.65;5.80;;;;;;;14.97;73.66;101667.94;5015963;28;20041;-87
2023/05/21 05:08:32;;;;;;;9.02;5.60;;;;;;;14.99;73.94;101666.19;5033314;28;20029;-87
2023/05/21 05:10:58;;;;;;;8.00;5.40;;;;;;;15.02;73.60;101665.28;5033552;28;20029;-87
2023/05/21 05:13:23;;;;;;;9.35;5.55;;;;;;;15.09;73.42;101661.78;5015488;28;20087;-87
2023/05/21 05:15:49;;;;;;;8.48;5.80;;;;;;;15.09;73.41;101661.78;4998867;28;20111;-86
2023/05/21 05:18:15;;;;;;;9.35;5.97;;;;;;;15.14;73.63;101662.69;4999403;28;20125;-87
2023/05/21 05:20:40;;;;;;;7.65;5.40;;;;;;;15.08;74.23;101660.00;5033247;28;20470;-87
2023/05/21 05:23:06;;;;;;;7.50;5.53;;;;;;;15.01;73.87;101647.53;5015192;28;20030;-87
2023/05/21 05:25:31;;;;;;;7.70;5.53;;;;;;;15.06;74.09;101656.44;5032955;28;20033;-86
2023/05/21 05:27:59;;;;;;;11.75;5.60;;;;;;;15.10;74.14;101655.56;5015855;28;20033;-88
2023/05/21 05:30:24;;;;;;;9.02;5.80;;;;;;;15.14;74.06;101659.16;5016092;28;20120;-86
2023/05/21 05:32:50;;;;;;;8.30;5.85;;;;;;;15.18;74.23;101655.63;4999052;28;20125;-86
2023/05/21 05:35:15;;;;;;;13.07;6.22;;;;;;;15.20;74.08;101649.44;5016137;28;20034;-86
2023/05/21 05:37:40;;;;;;;7.05;5.63;;;;;;;15.26;73.52;101652.09;5015407;28;20497;-86
2023/05/21 05:40:06;;;;;;;11.15;6.20;;;;;;;15.34;73.64;101661.91;5015849;28;20034;-86
2023/05/21 05:42:32;;;;;;;8.82;6.00;;;;;;;15.31;73.25;101654.78;4999083;28;20132;-87
2023/05/21 05:44:57;;;;;;;8.65;5.70;;;;;;;15.43;73.44;101667.28;4999027;28;20116;-86
2023/05/21 05:47:25;;;;;;;8.55;6.10;;;;;;;15.46;73.45;101661.94;5015314;28;20124;-86
2023/05/21 05:49:50;;;;;;;10.65;6.13;;;;;;;15.51;73.00;101660.19;5019423;28;20444;-86
2023/05/21 05:52:16;;;;;;;7.22;5.88;;;;;;;15.52;73.10;101656.66;5002841;28;20116;-86
2023/05/21 05:54:41;;;;;;;8.27;6.03;;;;;;;15.62;73.18;101657.56;5019007;28;20056;-87
2023/05/21 05:57:07;;;;;;;8.15;6.00;;;;;;;15.69;72.98;101662.06;5036968;28;20037;-87
2023/05/21 05:59:32;;;;;;;8.70;5.00;;;;;;;15.84;71.70;101650.53;5036715;28;20025;-87
2023/05/21 06:01:59;;;;;;;11.63;6.50;;;;;;;15.93;71.89;101654.13;5002628;28;20026;-86
2023/05/21 06:04:28;;;;;;;8.50;6.25;;;;;;;15.97;71.71;101657.66;5019065;28;20519;-86
2023/05/21 06:06:56;;;;;;;8.32;6.32;;;;;;;16.01;71.20;101656.78;4986460;28;20120;-87
2023/05/21 06:09:22;;;;;;;9.25;6.47;;;;;;;16.09;71.62;101667.47;5002795;28;20036;-88
2023/05/21 06:11:48;;;;;;;8.45;6.47;;;;;;;16.14;71.64;101666.56;5036639;28;20037;-86
2023/05/21 06:14:13;;;;;;;10.32;6.63;;;;;;;16.19;71.64;101659.50;5036128;28;20038;-85
2023/05/21 06:16:39;;;;;;;13.35;6.55;;;;;;;16.33;71.09;101666.59;5035942;28;20084;-86
2023/05/21 06:19:04;;;;;;;9.48;6.68;;;;;;;16.41;71.18;101668.38;5002250;28;20041;-86
2023/05/21 06:21:30;;;;;;;9.07;6.43;;;;;;;16.55;70.80;101664.81;5018636;28;20033;-86
2023/05/21 06:23:55;;;;;;;8.73;6.47;;;;;;;16.59;70.72;101656.81;5018569;28;20112;-87
2023/05/21 06:26:21;;;;;;;9.93;6.53;;;;;;;16.73;70.51;101656.81;5018379;28;20458;-86
2023/05/21 06:28:46;;;;;;;9.38;6.85;;;;;;;16.82;69.94;101661.25;5036427;28;20044;-86
2023/05/21 06:31:12;;;;;;;9.40;6.72;;;;;;;16.80;69.05;101663.94;5002074;28;20040;-86
2023/05/21 06:33:37;;;;;;;12.48;6.65;;;;;;;16.99;68.57;101673.66;5001706;28;20129;-86
2023/05/21 06:36:03;;;;;;;8.95;6.47;;;;;;;17.15;68.46;101669.19;4986073;28;20029;-86
2023/05/21 06:38:28;;;;;;;10.52;6.45;;;;;;;17.30;68.48;101660.22;4985439;28;20398;-86
2023/05/21 06:40:54;;;;;;;10.40;6.65;;;;;;;17.44;66.98;101662.84;5035957;28;20032;-85
2023/05/21 06:43:19;;;;;;;10.50;6.20;;;;;;;17.47;67.44;101658.38;5035483;28;20097;-87
2023/05/21 06:45:45;;;;;;;8.40;6.32;;;;;;;17.69;66.39;101652.91;5018132;28;20029;-87
2023/05/21 06:48:11;;;;;;;8.95;6.65;;;;;;;17.83;65.23;101653.75;5036376;28;20041;-87
2023/05/21 06:50:36;;;;;;;9.38;6.55;;;;;;;17.90;64.90;101657.25;5017977;28;20382;-86
2023/05/21 06:53:02;;;;;;;12.25;7.07;;;;;;;17.96;64.71;101662.59;5018433;28;20056;-86
2023/05/21 06:55:35;;;;;;;8.60;6.32;;;;;;;17.92;65.03;101656.34;5018060;28;20123;-86
2023/05/21 06:58:00;;;;;;;9.23;6.57;;;;;;;17.89;64.84;101651.03;5036177;28;20060;-86
2023/05/21 07:00:28;;;;;;;9.70;6.63;;;;;;;17.88;64.73;101651.03;5017686;28;20462;-85
2023/05/21 07:02:53;;;;;;;8.82;6.68;;;;;;;17.87;64.96;101644.81;5035459;28;20033;-86
2023/05/21 07:05:19;;;;;;;11.00;6.50;;;;;;;17.91;65.45;101651.03;5017598;28;20025;-86
2023/05/21 07:07:45;;;;;;;10.00;6.97;;;;;;;18.06;64.63;101645.56;5035887;28;20127;-86
2023/05/21 07:10:10;;;;;;;9.27;6.45;;;;;;;18.30;64.79;101646.28;5017544;28;20087;-86
2023/05/21 07:12:35;;;;;;;10.80;6.72;;;;;;;18.51;63.58;101649.66;5001206;28;20044;-87
2023/05/21 07:15:01;;;;;;;8.57;6.47;;;;;;;18.76;63.29;101639.63;5034911;28;20482;-88
2023/05/21 07:17:26;;;;;;;10.07;6.70;;;;;;;18.88;63.19;101633.22;5001134;28;20454;-86
2023/05/21 07:19:52;;;;;;;8.50;6.65;;;;;;;19.04;62.15;101635.75;5000723;28;20128;-86
2023/05/21 07:22:17;;;;;;;10.75;7.10;;;;;;;19.25;60.87;101636.38;5017367;28;20090;-86
2023/05/21 07:24:43;;;;;;;8.55;6.90;;;;;;;19.49;60.54;101628.94;5016765;28;20129;-86
2023/05/21 07:27:08;;;;;;;9.00;6.82;;;;;;;19.81;60.18;101632.97;5017059;28;20033;-86
2023/05/21 07:29:34;;;;;;;10.05;6.70;;;;;;;19.99;58.61;101628.22;5034660;28;20092;-87
2023/05/21 07:31:59;;;;;;;9.02;6.88;;;;;;;20.11;58.15;101639.66;5016860;28;20042;-87
2023/05/21 07:34:25;;;;;;;9.77;6.63;;;;;;;20.26;57.25;101634.94;5016818;28;20029;-87
2023/05/21 07:36:51;;;;;;;10.02;6.60;;;;;;;20.46;57.02;101626.53;5000477;28;20037;-86
2023/05/21 07:39:16;;;;;;;10.00;7.05;;;;;;;20.63;56.97;101630.75;5016981;28;20037;-87
2023/05/21 07:41:42;;;;;;;13.35;6.80;;;;;;;20.84;54.91;101632.16;5034773;28;20033;-86
2023/05/21 07:44:07;;;;;;;7.50;6.50;;;;;;;21.02;54.91;101632.66;5000533;28;20029;-86
2023/05/21 07:46:33;;;;;;;11.57;6.75;;;;;;;21.10;54.22;101616.38;5034553;28;20060;-86
2023/05/21 07:48:58;;;;;;;10.45;7.03;;;;;;;21.26;54.54;101631.28;5034562;28;20386;-86
2023/05/21 07:51:24;;;;;;;8.95;6.65;;;;;;;21.54;54.71;101630.75;5000225;28;20163;-87
2023/05/21 07:53:49;;;;;;;12.32;7.18;;;;;;;21.68;54.36;101630.44;5001029;28;20049;-86
2023/05/21 07:56:15;;;;;;;10.07;6.60;;;;;;;21.89;54.02;101624.53;5034127;28;20171;-86
2023/05/21 07:58:42;;;;;;;9.68;6.55;;;;;;;22.03;52.99;101624.22;4999996;28;20542;-86
2023/05/21 08:01:08;;;;;;;9.52;7.05;;;;;;;22.19;52.98;101632.84;5016996;28;20038;-85
2023/05/21 08:03:33;;;;;;;11.30;7.63;;;;;;;22.32;51.69;101626.22;5034143;28;20378;-86
2023/05/21 08:05:58;;;;;;;10.35;6.55;;;;;;;22.62;51.28;101621.84;5000200;28;20037;-86
2023/05/21 08:08:24;;;;;;;11.13;6.90;;;;;;;22.72;52.03;101627.84;5034054;28;20084;-86
2023/05/21 08:10:49;;;;;;;13.50;6.85;;;;;;;22.80;50.45;101616.88;4999378;28;20036;-87
2023/05/21 08:13:15;;;;;;;11.95;7.25;;;;;;;23.02;49.40;101623.44;5016616;28;20041;-86
2023/05/21 08:15:41;;;;;;;9.95;6.90;;;;;;;23.04;50.58;101627.00;5016003;28;20052;-86
2023/05/21 08:18:07;;;;;;;10.23;7.03;;;;;;;23.23;49.71;101621.94;5034010;28;20120;-86
2023/05/21 08:20:33;;;;;;;9.35;6.65;;;;;;;23.51;49.67;101622.00;5033674;28;20051;-86
2023/05/21 08:23:01;;;;;;;13.15;7.13;;;;;;;23.62;49.12;101627.94;5016069;28;20030;-86
2023/05/21 08:25:27;;;;;;;10.45;6.90;;;;;;;23.71;48.17;101624.09;5016521;28;20034;-86
2023/05/21 08:27:53;;;;;;;10.05;7.63;;;;;;;23.70;47.85;101619.66;5016315;28;20052;-86
2023/05/21 08:30:18;;;;;;;9.50;6.90;;;;;;;23.66;48.54;101620.66;5016259;28;20466;-86
2023/05/21 08:32:44;;;;;;;9.73;6.40;;;;;;;23.83;48.45;101612.03;5033436;28;20029;-86
2023/05/21 08:35:09;;;;;;;9.52;7.63;;;;;;;23.77;48.62;101613.13;5000113;28;20159;-86
2023/05/21 08:37:35;;;;;;;12.77;7.47;;;;;;;23.69;49.12;101602.56;5016143;28;20037;-86
2023/05/21 08:40:01;;;;;;;11.95;7.10;;;;;;;23.81;48.53;101601.31;5015870;28;20434;-86
2023/05/21 08:42:35;;;;;;;9.60;7.55;;;;;;;23.94;48.97;101612.59;5033733;28;20053;-86
2023/05/21 08:45:04;;;;;;;11.38;7.75;;;;;;;23.99;48.41;101608.78;5016386;28;20516;-86
2023/05/21 08:47:33;;;;;;;11.50;8.13;;;;;;;24.11;47.89;101595.81;5016085;28;20025;-87
2023/05/21 08:49:59;;;;;;;10.48;7.55;;;;;;;24.12;47.59;101598.47;5033829;28;20030;-86
2023/05/21 08:52:25;;;;;;;12.60;7.57;;;;;;;24.34;46.92;101592.34;5033580;28;20489;-87
2023/05/21 08:54:51;;;;;;;11.98;7.95;;;;;;;24.41;46.86;101596.59;5016906;28;20168;-87
2023/05/21 08:57:18;;;;;;;10.50;7.07;;;;;;;24.58;46.39;101604.13;5033531;28;20037;-86
2023/05/21 08:59:44;;;;;;;14.65;7.55;;;;;;;24.76;46.54;101599.91;5015773;28;20048;-86
2023/05/21 09:02:12;;;;;;;10.30;7.63;;;;;;;24.84;44.97;101592.34;5015766;28;20033;-86
2023/05/21 09:04:40;;;;;;;9.75;7.32;;;;;;;25.08;45.61;101596.00;4999251;28;20030;-86
2023/05/21 09:07:09;;;;;;;10.23;7.20;;;;;;;25.07;46.73;101600.50;5033618;28;20036;-86
2023/05/21 09:09:40;;;;;;;12.75;6.93;;;;;;;25.26;45.08;101597.13;5016158;28;20030;-87
2023/05/21 09:12:07;;;;;;;;;;;;;;;25.61;45.61;101588.53;5016882;28;20366;-86
2023/05/21 09:14:34;;;;;;;10.75;7.55;;;;;;;25.50;45.55;101588.06;5033228;28;19913;-86
2023/05/21 09:17:00;;;;;;;10.55;7.88;;;;;;;25.56;45.49;101592.34;5016257;28;20397;-86
2023/05/21 09:19:25;;;;;;;10.18;7.85;;;;;;;25.61;44.96;101593.94;5015537;28;20033;-86
2023/05/21 09:21:51;;;;;;;9.57;7.13;;;;;;;26.00;42.79;101589.72;5033748;28;20033;-87
2023/05/21 09:24:20;;;;;;;12.27;7.70;;;;;;;26.19;43.12;101596.09;5019713;28;20083;-87
2023/05/21 09:26:45;;;;;;;14.88;8.13;;;;;;;26.28;43.62;101584.88;5037312;28;20021;-86
2023/05/21 09:29:13;;;;;;;12.18;7.57;;;;;;;26.40;43.27;101588.88;5019150;28;20043;-87
2023/05/21 09:31:43;;;;;;;9.93;7.70;;;;;;;26.32;43.44;101591.91;5020210;28;20431;-87
2023/05/21 09:34:09;;;;;;;15.15;7.82;;;;;;;26.17;43.18;101588.06;5037158;28;20477;-87
2023/05/21 09:36:37;;;;;;;15.30;8.10;;;;;;;26.23;44.72;101579.66;5019663;28;20115;-87
2023/05/21 09:39:03;;;;;;;9.63;7.63;;;;;;;26.23;43.72;101576.94;5037102;28;20466;-87
2023/05/21 09:41:34;;;;;;;14.90;8.18;;;;;;;26.27;43.91;101580.41;5037168;28;20029;-87
2023/05/21 09:44:01;;;;;;;11.53;7.80;;;;;;;26.46;43.09;101567.81;5037037;28;20026;-87
2023/05/21 09:46:26;;;;;;;9.27;7.47;;;;;;;26.36;42.61;101577.28;5037588;28;20030;-86
2023/05/21 09:48:54;;;;;;;12.75;7.55;;;;;;;26.32;43.75;101572.06;5003968;28;20420;-86
2023/05/21 09:51:20;;;;;;;10.48;8.10;;;;;;;26.66;42.14;101566.94;5046671;28;20076;-87
2023/05/21 09:53:54;;;;;;;9.88;7.78;;;;;;;26.74;42.70;101572.03;5034282;28;20082;-88
2023/05/21 09:56:24;;;;;;;9.90;7.57;;;;;;;26.89;42.31;101562.31;5021164;28;20044;-87
2023/05/21 09:59:03;;;;;;;11.05;8.02;;;;;;;27.00;41.95;101568.13;5037166;28;20108;-87
2023/05/21 10:01:32;;;;;;;10.63;7.95;;;;;;;26.95;42.46;101570.19;5036691;28;20041;-88
2023/05/21 10:04:01;;;;;;;14.10;8.50;;;;;;;26.74;42.33;101577.47;5018815;28;20123;-87
2023/05/21 10:06:28;;;;;;;15.98;8.48;;;;;;;26.48;42.58;101566.91;5036634;28;20038;-87
2023/05/21 10:08:58;;;;;;;14.73;8.30;;;;;;;26.68;42.85;101559.66;5002346;28;20033;-87
2023/05/21 10:11:30;;;;;;;10.23;8.07;;;;;;;26.93;43.26;101561.22;5036473;28;20060;-87
2023/05/21 10:14:08;;;;;;;;;;;;;;;27.39;42.14;101567.22;5018933;28;20033;-87
2023/05/21 10:16:36;;;;;;;12.27;8.48;;;;;;;27.33;40.54;101559.41;5036343;28;19920;-87
2023/05/21 10:19:02;;;;;;;9.52;7.88;;;;;;;27.38;41.50;101560.91;5036454;28;20040;-87
2023/05/21 10:21:29;;;;;;;13.50;8.10;;;;;;;27.58;40.52;101553.63;5018637;28;20029;-87
2023/05/21 10:23:56;;;;;;;9.70;8.07;;;;;;;27.61;39.97;101551.66;5035855;28;20080;-87
2023/05/21 10:26:26;;;;;;;11.52;8.13;;;;;;;28.00;41.23;101550.63;5018901;28;20037;-87
2023/05/21 10:28:55;;;;;;;10.82;8.32;;;;;;;28.24;40.13;101548.50;5018578;28;20026;-87
2023/05/21 10:31:21;;;;;;;10.73;8.32;;;;;;;28.45;38.36;101547.41;5018744;28;20041;-87
2023/05/21 10:33:47;;;;;;;12.43;8.02;;;;;;;28.68;37.98;101545.28;5035702;28;20055;-87
2023/05/21 10:36:16;;;;;;;11.10;8.13;;;;;;;28.65;37.98;101540.91;5035948;28;20033;-87
2023/05/21 10:38:43;;;;;;;11.70;8.50;;;;;;;28.63;38.51;101541.94;5018292;28;20104;-88
2023/05/21 10:41:11;;;;;;;11.02;8.07;;;;;;;28.86;37.34;101530.69;5035939;28;20037;-88
2023/05/21 10:44:20;;;;;;;13.02;8.50;;;;;;;29.31;38.10;101526.41;5035811;28;20079;-88
2023/05/21 10:47:27;;;;;;;12.45;8.68;;;;;;;29.21;37.47;101525.19;4936187;29;20111;-87
2023/05/21 10:50:15;;;;;;;11.73;8.02;;;;;;;29.35;38.47;101522.53;4985880;28;20060;-88
2023/05/21 10:53:07;;;;;;;10.75;8.20;;;;;;;29.67;37.35;101520.69;5017968;28;20057;-87
2023/05/21 10:55:57;;;;;;;11.27;8.77;;;;;;;29.97;36.02;101514.38;5017977;28;20095;-88
2023/05/21 10:58:39;;;;;;;11.88;9.30;;;;;;;30.13;35.50;101515.22;5035774;28;20032;-88
2023/05/21 11:01:06;;;;;;;13.30;9.52;;;;;;;30.10;34.14;101504.50;5035363;28;20069;-88
2023/05/21 11:03:32;;;;;;;13.27;9.43;;;;;;;29.81;36.16;101508.13;5001217;28;20417;-88
2023/05/21 11:06:00;;;;;;;15.50;9.27;;;;;;;29.67;35.90;101506.19;5035150;28;20029;-88
2023/05/21 11:08:32;;;;;;;14.02;10.05;;;;;;;29.62;35.01;101503.75;5018153;28;20060;-88
2023/05/21 11:10:58;;;;;;;12.40;9.57;;;;;;;30.00;35.15;101497.88;5001936;28;20043;-88
2023/05/21 11:13:25;;;;;;;13.13;10.52;;;;;;;30.02;34.53;101495.03;5035256;28;20049;-88
2023/05/21 11:15:56;;;;;;;16.67;10.68;;;;;;;29.85;34.14;101496.94;5017385;28;20073;-88
2023/05/21 11:18:34;;;;;;;13.95;10.88;;;;;;;29.74;34.83;101480.34;5017164;28;20535;-88
2023/05/21 11:21:10;;;;;;;14.60;10.23;;;;;;;29.65;35.38;101487.22;5035233;28;20063;-87